createdAt,value
2018-06-01T00:07:27.049Z,18.53
2018-06-01T00:18:28.331Z,18.47
2018-06-01T00:29:28.485Z,18.32
2018-06-01T00:40:27.188Z,18.18
2018-06-01T00:51:30.567Z,18.19
2018-06-01T01:02:29.904Z,18.21
2018-06-01T01:13:30.022Z,18.04
2018-06-01T01:24:28.511Z,17.91
2018-06-01T01:35:31.486Z,17.77
2018-06-01T01:46:30.017Z,17.60
2018-06-01T01:57:33.330Z,17.54
2018-06-01T02:08:38.282Z,17.47
2018-06-01T02:19:40.955Z,17.39
2018-06-01T02:30:44.721Z,17.26
2018-06-01T02:41:43.656Z,17.18
2018-06-01T02:52:44.545Z,17.11
2018-06-01T03:03:43.263Z,17.02
2018-06-01T03:14:43.624Z,16.90
2018-06-01T03:25:41.973Z,16.93
2018-06-01T03:36:42.257Z,17.05
2018-06-01T03:47:45.872Z,16.98
2018-06-01T03:58:44.034Z,17.07
2018-06-01T04:09:42.715Z,17.17
2018-06-01T04:20:46.934Z,17.43
2018-06-01T04:31:45.700Z,17.60
2018-06-01T04:42:50.472Z,17.96
2018-06-01T04:53:52.188Z,18.28
2018-06-01T05:04:55.963Z,18.53
2018-06-01T05:15:55.833Z,18.84
2018-06-01T05:26:55.011Z,19.02
2018-06-01T05:37:58.535Z,19.48
2018-06-01T05:49:01.851Z,20.26
2018-06-01T06:00:06.285Z,20.64
2018-06-01T06:11:10.251Z,20.68
2018-06-01T06:22:06.904Z,20.99
2018-06-01T06:33:09.548Z,21.20
2018-06-01T06:44:10.413Z,21.72
2018-06-01T06:55:13.471Z,22.24
2018-06-01T07:06:12.792Z,22.41
2018-06-01T07:17:14.321Z,22.71
2018-06-01T07:28:19.396Z,22.97
2018-06-01T07:39:00.048Z,23.02
2018-06-01T07:49:53.251Z,23.52
2018-06-01T08:00:53.977Z,23.68
2018-06-01T08:11:54.996Z,23.92
2018-06-01T08:22:56.545Z,24.10
2018-06-01T08:33:56.630Z,24.40
2018-06-01T08:44:57.338Z,24.93
2018-06-01T08:55:57.899Z,25.17
2018-06-01T09:06:58.909Z,25.46
2018-06-01T09:17:56.683Z,25.70
2018-06-01T09:28:57.565Z,25.99
2018-06-01T09:39:59.405Z,26.01
2018-06-01T09:50:58.518Z,26.43
2018-06-01T10:01:58.143Z,26.86
2018-06-01T10:12:51.985Z,27.04
2018-06-01T10:23:47.087Z,27.20
2018-06-01T10:34:43.433Z,28.02
2018-06-01T10:45:40.659Z,28.38
2018-06-01T10:56:40.904Z,29.11
2018-06-01T11:07:32.184Z,26.67
2018-06-01T11:18:22.397Z,26.02
2018-06-01T11:29:16.159Z,25.45
2018-06-01T11:40:14.389Z,25.92
2018-06-01T11:51:07.755Z,24.95
2018-06-01T12:01:59.319Z,24.62
2018-06-01T12:12:53.572Z,22.59
2018-06-01T12:23:39.172Z,19.61
2018-06-01T12:34:33.857Z,19.23
2018-06-01T12:45:35.367Z,18.86
2018-06-01T12:56:33.398Z,19.08
2018-06-01T13:07:34.071Z,19.06
2018-06-01T13:18:29.415Z,19.11
2018-06-01T13:29:23.570Z,19.14
2018-06-01T13:40:24.999Z,19.06
2018-06-01T13:51:09.490Z,19.02
2018-06-01T14:02:02.592Z,18.86
2018-06-01T14:13:00.412Z,18.89
2018-06-01T14:24:03.012Z,19.27
2018-06-01T14:34:47.707Z,19.53
2018-06-01T14:45:40.865Z,20.30
2018-06-01T14:56:44.357Z,20.66
2018-06-01T15:07:46.520Z,20.71
2018-06-01T15:18:46.369Z,21.05
2018-06-01T15:29:45.338Z,21.19
2018-06-01T15:40:46.918Z,21.11
2018-06-01T15:51:47.379Z,21.14
2018-06-01T16:02:49.579Z,21.39
2018-06-01T16:13:43.738Z,21.30
2018-06-01T16:24:42.554Z,21.27
2018-06-01T16:35:41.601Z,21.20
2018-06-01T16:46:44.954Z,21.06
2018-06-01T16:57:46.051Z,20.93
2018-06-01T17:08:43.351Z,20.90
2018-06-01T17:19:44.382Z,20.65
2018-06-01T17:30:45.286Z,20.42
2018-06-01T17:41:44.569Z,20.34
2018-06-01T17:52:52.569Z,20.26
2018-06-01T18:03:52.328Z,20.09
2018-06-01T18:14:54.243Z,19.90
2018-06-01T18:25:43.527Z,19.72
2018-06-01T18:36:36.215Z,19.60
2018-06-01T18:47:31.049Z,19.33
2018-06-01T18:58:30.944Z,18.94
2018-06-01T19:09:30.612Z,18.77
2018-06-01T19:20:30.376Z,18.64
2018-06-01T19:31:30.908Z,18.69
2018-06-01T19:42:25.386Z,18.53
2018-06-01T19:53:22.631Z,18.42
2018-06-01T20:04:19.821Z,18.29
2018-06-01T20:15:15.612Z,18.14
2018-06-01T20:26:15.278Z,18.03
2018-06-01T20:37:11.349Z,17.84
2018-06-01T20:48:13.459Z,17.74
2018-06-01T20:59:11.954Z,17.64
2018-06-01T21:10:13.187Z,17.54
2018-06-01T21:21:09.704Z,17.28
2018-06-01T21:32:07.820Z,16.98
2018-06-01T21:43:06.723Z,16.96
2018-06-01T21:54:03.032Z,16.98
2018-06-01T22:05:04.854Z,16.75
2018-06-01T22:16:04.180Z,16.65
2018-06-01T22:27:05.149Z,16.62
2018-06-01T22:38:08.099Z,16.53
2018-06-01T22:49:07.309Z,16.44
2018-06-01T23:00:05.134Z,16.55
2018-06-01T23:11:03.849Z,16.37
2018-06-01T23:22:05.121Z,16.27
2018-06-01T23:33:03.384Z,16.01
2018-06-01T23:44:02.417Z,15.92
2018-06-01T23:55:04.230Z,15.85
